2004 ABAIMBA (2003272S05066)


On this page: IBTrACS data - Map and Plots - Positions - Intensities - Original source data

Summary

Start Sep 28
End Oct 5
Basin SI
LMI 45 kt
Sources jtwc_sh
reunion
neumann
In WMO? Yes
Previous storm 2003 LARRY (NA)
Previous in basin 2003 MANOU (SI)
Concurrent storms 2003 KOPPU (WP)
2003 JUAN (NA)
2003 KATE (NA)
2003 LARRY (NA)
2004 ABAIMBA (SI)
2003 NORA (EP)
2003 OLAF (EP)
Next in basin Missing
Next storm 2003 NORA (EP)

top of page IBTrACS Data: File Access

Image of storm

top of page Plots:

Map of storm track will not appear if FTP is down
Time series of cyclone Maximum Sustained Wind will not appear if FTP is down
Time series of cyclone Minimum Central Pressure will not appear if FTP is down

top of page Track Data:Position

jtwc_sh reunion neumann
Date Lat Lon Lat Lon Lat Lon
2003-09-28 12:00:00 -4.5 66.2
2003-09-28 18:00:00 -4.7 65.1
2003-09-29 00:00:00 -4.8 64.1
2003-09-29 06:00:00 -4.4 63.4 -4.6 63.3 -4.4 63.4
2003-09-29 12:00:00 -4.4 63.8 -4.4 63.9 -4.4 63.8
2003-09-29 18:00:00 -4.4 64.2 -4.3 64.6 -4.4 64.2
2003-09-30 00:00:00 -4.4 64.6 -4.2 65.0 -4.4 64.6
2003-09-30 06:00:00 -4.5 65.0 -4.3 65.2 -4.5 65.0
2003-09-30 12:00:00 -4.5 65.4 -4.4 65.5 -4.5 65.4
2003-09-30 18:00:00 -4.4 65.7 -4.4 65.9 -4.4 65.7
2003-10-01 00:00:00 -4.2 65.9 -4.4 65.9 -4.2 65.9
2003-10-01 06:00:00 -4.4 66.1 -4.4 66.1 -4.4 66.1
2003-10-01 12:00:00 -4.7 66.2 -4.7 66.7 -4.7 66.2
2003-10-01 18:00:00 -5.0 66.4 -5.0 67.0 -5.0 66.4
2003-10-02 00:00:00 -5.2 66.7 -5.3 67.2 -5.2 66.7
2003-10-02 06:00:00 -5.4 67.0 -5.6 67.2 -5.4 67.0
2003-10-02 12:00:00 -5.5 67.4 -5.8 67.4 -5.5 67.4
2003-10-02 18:00:00 -5.8 67.5 -6.0 67.4 -5.8 67.5
2003-10-03 00:00:00 -6.1 67.3 -6.1 67.3 -6.1 67.3
2003-10-03 06:00:00 -6.2 67.0 -6.2 67.3 -6.2 67.0
2003-10-03 12:00:00 -6.5 66.9 -6.4 67.1 -6.5 66.9
2003-10-03 18:00:00 -6.8 66.6 -6.5 66.9 -6.8 66.6
2003-10-04 00:00:00 -7.0 66.2 -6.9 66.2 -7.0 66.2
2003-10-04 06:00:00 -7.1 65.6 -7.0 65.1 -7.1 65.6
2003-10-04 12:00:00 -6.8 65.2 -6.1 64.8 -6.8 65.2
jtwc_sh reunion neumann
2003-10-04 18:00:00 -6.4 65.0 -5.6 65.3 -6.4 65.0
2003-10-05 00:00:00 -6.1 65.1 -6.1 65.1
2003-10-05 06:00:00 -5.8 65.1 -5.8 65.1

top of pageTrack Data:Intensity

jtwc_sh reunion neumann
Date Wind Pres Wind Pres Wind Pres
2003-09-28 12:00:00 20. 1007.
2003-09-28 18:00:00 25. 1006.
2003-09-29 00:00:00 25. 1005.
2003-09-29 06:00:00 30. 1000. 30. 1003. 30.
2003-09-29 12:00:00 30. 1000. 33. 1001. 30.
2003-09-29 18:00:00 30. 1000. 33. 1001. 30.
2003-09-30 00:00:00 30. 1000. 33. 1001. 30.
2003-09-30 06:00:00 35. 997. 30. 1003. 35.
2003-09-30 12:00:00 35. 997. 30. 1003. 35.
2003-09-30 18:00:00 35. 997. 33. 1001. 35.
2003-10-01 00:00:00 40. 994. 37. 998. 40.
2003-10-01 06:00:00 45. 991. 43. 995. 45.
2003-10-01 12:00:00 45. 991. 43. 995. 45.
2003-10-01 18:00:00 45. 991. 43. 995. 45.
2003-10-02 00:00:00 40. 994. 40. 997. 40.
2003-10-02 06:00:00 30. 1000. 35. 999. 30.
2003-10-02 12:00:00 30. 1000. 30. 1002. 30.
2003-10-02 18:00:00 30. 1000. 30. 1003. 30.
2003-10-03 00:00:00 30. 1000. 30. 1003. 30.
2003-10-03 06:00:00 35. 997. 30. 1003. 35.
2003-10-03 12:00:00 35. 997. 30. 1003. 35.
2003-10-03 18:00:00 35. 997. 25. 1005. 35.
2003-10-04 00:00:00 30. 1000. 25. 1005. 30.
2003-10-04 06:00:00 25. 1002. 20. 1007. 25.
2003-10-04 12:00:00 25. 1002. 20. 1007. 25.
jtwc_sh reunion neumann
2003-10-04 18:00:00 25. 1002. 20. 1007. 25.
2003-10-05 00:00:00 25. 1002. 25.
2003-10-05 06:00:00 25. 1002. 25.

top of page Links to source data

Source Source file Format
jtwc_sh bsh012004.txt ATCF
reunion Best-Tracks-current.txt:Line=1:ABAIMBA WMO (old format)
neumann tracks.sh:Storm=1280:ABAIMBA:BSH012004:JTWC HURDAT